Bellingham International Airport Bellingham US
ICAO: KBLI
IATA: BLI
Category: Medium
Scheduled Services: Yes

Elevation: 170 ft
TransAlt. 18000 ft.

Airport Communications:
VICTORIA APP/DEP:132.7
ATIS:134.45
CTAF:124.9
GND:127.4
SEATTLE RDO:122.15
TWR:124.9
UNICOM:122.95

KBLI Zoom In..

If you have problems with the map follow the link
https://www.worldairports.se/pages/airport.php?
ICAO=KBLI

Runways:

(A) RW 16 length 6701 ft width 150 ft
ILS 108.50 / hdg 160

(B) RW 34 length 6701 ft width 150 ft
---- / hdg 340

Location; KBLI
Day. 23 / Time. 07.32 Zulu
* Altimeter: 29.86
* Temperature: 06° c. 42.8°f.
* Wind from: 000° Speed 00 kn.
Dewpoint: 03° c.
Visibility: 3/4 Statute Miles.
Conditions: Mist.

KBLI 230732Z AUTO 00000KT 3/4SM R16/1400V2000FT BR VV004 06/03 A2986 RMK AO2 T00560033


Wind - Calm.

 
 
jpsmedia.com for Web Design worldairports.se 2018   terms of use